sensor_id;sensor_type;location;lat;lon;timestamp;temperature;humidity
51175;DHT22;37240;50.104;20.010;2022-08-04T00:04:07;23.60;87.50
51175;DHT22;37240;50.104;20.010;2022-08-04T00:09:45;23.60;87.70
51175;DHT22;37240;50.104;20.010;2022-08-04T00:14:49;23.50;88.20
51175;DHT22;37240;50.104;20.010;2022-08-04T00:19:54;23.40;88.90
51175;DHT22;37240;50.104;20.010;2022-08-04T00:24:56;23.40;89.10
51175;DHT22;37240;50.104;20.010;2022-08-04T00:29:58;23.40;89.40
51175;DHT22;37240;50.104;20.010;2022-08-04T00:34:58;23.20;90.00
51175;DHT22;37240;50.104;20.010;2022-08-04T00:40:00;23.20;90.30
51175;DHT22;37240;50.104;20.010;2022-08-04T00:45:31;23.10;90.60
51175;DHT22;37240;50.104;20.010;2022-08-04T00:56:03;22.90;91.10
51175;DHT22;37240;50.104;20.010;2022-08-04T01:01:05;22.80;91.50
51175;DHT22;37240;50.104;20.010;2022-08-04T01:06:44;22.70;91.80
51175;DHT22;37240;50.104;20.010;2022-08-04T01:12:11;22.60;92.10
51175;DHT22;37240;50.104;20.010;2022-08-04T01:23:53;22.30;93.10
51175;DHT22;37240;50.104;20.010;2022-08-04T01:33:28;22.30;93.70
51175;DHT22;37240;50.104;20.010;2022-08-04T01:43:32;22.10;94.20
51175;DHT22;37240;50.104;20.010;2022-08-04T01:48:33;22.10;94.30
51175;DHT22;37240;50.104;20.010;2022-08-04T01:53:41;22.10;94.70
51175;DHT22;37240;50.104;20.010;2022-08-04T01:58:42;22.00;94.50
51175;DHT22;37240;50.104;20.010;2022-08-04T02:03:44;22.10;94.60
51175;DHT22;37240;50.104;20.010;2022-08-04T02:08:55;22.10;94.60
51175;DHT22;37240;50.104;20.010;2022-08-04T02:14:24;22.00;94.70
51175;DHT22;37240;50.104;20.010;2022-08-04T02:19:32;22.00;94.90
51175;DHT22;37240;50.104;20.010;2022-08-04T02:24:44;21.90;94.90
51175;DHT22;37240;50.104;20.010;2022-08-04T02:34:53;21.80;95.10
51175;DHT22;37240;50.104;20.010;2022-08-04T02:39:59;21.80;95.20
51175;DHT22;37240;50.104;20.010;2022-08-04T02:45:00;21.80;95.60
51175;DHT22;37240;50.104;20.010;2022-08-04T02:50:02;21.70;95.90
51175;DHT22;37240;50.104;20.010;2022-08-04T02:55:06;21.60;96.00
51175;DHT22;37240;50.104;20.010;2022-08-04T03:00:11;21.60;96.10
51175;DHT22;37240;50.104;20.010;2022-08-04T03:05:53;21.50;96.20
51175;DHT22;37240;50.104;20.010;2022-08-04T03:11:04;21.60;96.40
51175;DHT22;37240;50.104;20.010;2022-08-04T03:27:40;21.50;96.60
51175;DHT22;37240;50.104;20.010;2022-08-04T04:48:18;27.20;78.60
51175;DHT22;37240;50.104;20.010;2022-08-04T04:53:44;27.70;74.70
51175;DHT22;37240;50.104;20.010;2022-08-04T04:58:47;28.50;72.90
51175;DHT22;37240;50.104;20.010;2022-08-04T05:04:06;29.40;68.20
51175;DHT22;37240;50.104;20.010;2022-08-04T05:09:26;30.00;63.50
51175;DHT22;37240;50.104;20.010;2022-08-04T05:14:37;30.40;62.10
51175;DHT22;37240;50.104;20.010;2022-08-04T05:24:46;31.70;58.70
51175;DHT22;37240;50.104;20.010;2022-08-04T05:29:52;32.20;57.20
51175;DHT22;37240;50.104;20.010;2022-08-04T05:35:02;32.50;57.10
51175;DHT22;37240;50.104;20.010;2022-08-04T05:40:05;34.00;52.80
51175;DHT22;37240;50.104;20.010;2022-08-04T05:45:07;34.60;51.90
51175;DHT22;37240;50.104;20.010;2022-08-04T05:50:08;34.90;49.70
51175;DHT22;37240;50.104;20.010;2022-08-04T05:55:09;34.70;49.00
51175;DHT22;37240;50.104;20.010;2022-08-04T06:00:10;34.90;48.00
51175;DHT22;37240;50.104;20.010;2022-08-04T06:05:13;34.80;48.40
51175;DHT22;37240;50.104;20.010;2022-08-04T06:10:14;35.50;46.80
51175;DHT22;37240;50.104;20.010;2022-08-04T06:15:18;35.10;47.10
51175;DHT22;37240;50.104;20.010;2022-08-04T06:20:20;35.70;46.80
51175;DHT22;37240;50.104;20.010;2022-08-04T06:25:25;35.80;45.70
51175;DHT22;37240;50.104;20.010;2022-08-04T06:30:27;36.10;43.70
51175;DHT22;37240;50.104;20.010;2022-08-04T06:35:31;35.60;44.10
51175;DHT22;37240;50.104;20.010;2022-08-04T06:40:32;35.00;45.40
51175;DHT22;37240;50.104;20.010;2022-08-04T06:45:36;34.70;46.30
51175;DHT22;37240;50.104;20.010;2022-08-04T06:50:39;34.30;46.20
51175;DHT22;37240;50.104;20.010;2022-08-04T06:55:42;34.00;47.30
51175;DHT22;37240;50.104;20.010;2022-08-04T07:00:46;33.90;47.40
51175;DHT22;37240;50.104;20.010;2022-08-04T07:05:47;33.80;47.50
51175;DHT22;37240;50.104;20.010;2022-08-04T07:10:48;33.50;47.40
51175;DHT22;37240;50.104;20.010;2022-08-04T07:15:50;33.50;48.90
51175;DHT22;37240;50.104;20.010;2022-08-04T07:20:51;33.60;49.60
51175;DHT22;37240;50.104;20.010;2022-08-04T07:25:54;33.50;47.90
51175;DHT22;37240;50.104;20.010;2022-08-04T07:30:56;33.30;47.00
51175;DHT22;37240;50.104;20.010;2022-08-04T07:35:57;33.50;45.90
51175;DHT22;37240;50.104;20.010;2022-08-04T07:40:57;33.40;44.90
51175;DHT22;37240;50.104;20.010;2022-08-04T07:45:58;33.60;43.70
51175;DHT22;37240;50.104;20.010;2022-08-04T07:50:59;33.60;44.90
51175;DHT22;37240;50.104;20.010;2022-08-04T07:56:01;34.00;43.20
51175;DHT22;37240;50.104;20.010;2022-08-04T08:01:02;34.60;41.70
51175;DHT22;37240;50.104;20.010;2022-08-04T08:06:03;34.40;42.60
51175;DHT22;37240;50.104;20.010;2022-08-04T08:11:05;34.10;42.30
51175;DHT22;37240;50.104;20.010;2022-08-04T08:16:05;34.20;41.80
51175;DHT22;37240;50.104;20.010;2022-08-04T08:21:06;33.90;41.70
51175;DHT22;37240;50.104;20.010;2022-08-04T08:26:07;34.00;41.80
51175;DHT22;37240;50.104;20.010;2022-08-04T08:31:07;34.20;42.30
51175;DHT22;37240;50.104;20.010;2022-08-04T08:36:22;34.30;41.50
51175;DHT22;37240;50.104;20.010;2022-08-04T08:52:48;33.30;41.40
51175;DHT22;37240;50.104;20.010;2022-08-04T08:57:58;32.90;43.00
51175;DHT22;37240;50.104;20.010;2022-08-04T09:08:26;32.70;39.80
51175;DHT22;37240;50.104;20.010;2022-08-04T09:13:39;32.30;41.50
51175;DHT22;37240;50.104;20.010;2022-08-04T09:18:41;32.00;42.40
51175;DHT22;37240;50.104;20.010;2022-08-04T09:24:08;32.40;40.90
51175;DHT22;37240;50.104;20.010;2022-08-04T09:29:20;33.20;40.80
51175;DHT22;37240;50.104;20.010;2022-08-04T09:39:41;34.60;39.70
51175;DHT22;37240;50.104;20.010;2022-08-04T09:50:39;33.20;39.60
51175;DHT22;37240;50.104;20.010;2022-08-04T10:01:03;32.30;42.00
51175;DHT22;37240;50.104;20.010;2022-08-04T10:06:27;31.70;41.40
51175;DHT22;37240;50.104;20.010;2022-08-04T10:11:52;31.50;42.20
51175;DHT22;37240;50.104;20.010;2022-08-04T10:22:36;31.50;43.00
51175;DHT22;37240;50.104;20.010;2022-08-04T10:27:45;31.50;44.70
51175;DHT22;37240;50.104;20.010;2022-08-04T10:33:01;31.30;45.70
51175;DHT22;37240;50.104;20.010;2022-08-04T10:43:38;30.70;46.70
51175;DHT22;37240;50.104;20.010;2022-08-04T10:48:56;30.60;47.00
51175;DHT22;37240;50.104;20.010;2022-08-04T10:54:02;30.70;47.30
51175;DHT22;37240;50.104;20.010;2022-08-04T10:59:11;30.60;47.00
51175;DHT22;37240;50.104;20.010;2022-08-04T11:04:29;30.40;46.60
51175;DHT22;37240;50.104;20.010;2022-08-04T11:09:32;30.50;47.10
51175;DHT22;37240;50.104;20.010;2022-08-04T11:20:26;30.50;45.50
51175;DHT22;37240;50.104;20.010;2022-08-04T11:25:26;30.30;45.50
51175;DHT22;37240;50.104;20.010;2022-08-04T11:30:43;30.00;45.80
51175;DHT22;37240;50.104;20.010;2022-08-04T11:35:56;30.00;45.80
51175;DHT22;37240;50.104;20.010;2022-08-04T11:41:08;30.10;45.00
51175;DHT22;37240;50.104;20.010;2022-08-04T11:46:14;29.90;45.50
51175;DHT22;37240;50.104;20.010;2022-08-04T11:51:18;29.90;45.30
51175;DHT22;37240;50.104;20.010;2022-08-04T11:56:20;29.90;46.30
51175;DHT22;37240;50.104;20.010;2022-08-04T12:06:54;30.00;46.20
51175;DHT22;37240;50.104;20.010;2022-08-04T12:17:18;29.90;45.70
51175;DHT22;37240;50.104;20.010;2022-08-04T12:22:22;29.90;46.40
51175;DHT22;37240;50.104;20.010;2022-08-04T12:27:28;30.00;46.70
51175;DHT22;37240;50.104;20.010;2022-08-04T12:32:38;30.00;46.50
51175;DHT22;37240;50.104;20.010;2022-08-04T12:37:50;30.00;46.10
51175;DHT22;37240;50.104;20.010;2022-08-04T12:43:04;30.00;45.90
51175;DHT22;37240;50.104;20.010;2022-08-04T12:48:05;29.90;46.30
51175;DHT22;37240;50.104;20.010;2022-08-04T12:53:13;29.80;46.50
51175;DHT22;37240;50.104;20.010;2022-08-04T12:58:17;29.70;46.30
51175;DHT22;37240;50.104;20.010;2022-08-04T13:03:19;29.70;46.20
51175;DHT22;37240;50.104;20.010;2022-08-04T13:08:21;29.70;45.90
51175;DHT22;37240;50.104;20.010;2022-08-04T13:13:25;29.70;45.60
51175;DHT22;37240;50.104;20.010;2022-08-04T13:18:31;29.70;45.80
51175;DHT22;37240;50.104;20.010;2022-08-04T13:23:32;29.90;45.30
51175;DHT22;37240;50.104;20.010;2022-08-04T13:28:33;29.80;45.60
51175;DHT22;37240;50.104;20.010;2022-08-04T13:33:41;29.80;46.20
51175;DHT22;37240;50.104;20.010;2022-08-04T13:38:48;30.10;44.90
51175;DHT22;37240;50.104;20.010;2022-08-04T13:43:58;31.50;43.10
51175;DHT22;37240;50.104;20.010;2022-08-04T13:49:01;33.20;40.10
51175;DHT22;37240;50.104;20.010;2022-08-04T13:54:02;33.40;38.40
51175;DHT22;37240;50.104;20.010;2022-08-04T13:59:04;33.50;38.30
51175;DHT22;37240;50.104;20.010;2022-08-04T14:04:16;33.70;38.70
51175;DHT22;37240;50.104;20.010;2022-08-04T14:09:19;33.50;38.80
51175;DHT22;37240;50.104;20.010;2022-08-04T14:14:23;33.20;38.40
51175;DHT22;37240;50.104;20.010;2022-08-04T14:19:24;33.20;37.90
51175;DHT22;37240;50.104;20.010;2022-08-04T14:24:26;33.20;38.70
51175;DHT22;37240;50.104;20.010;2022-08-04T14:29:36;33.10;39.00
51175;DHT22;37240;50.104;20.010;2022-08-04T14:34:38;32.90;39.70
51175;DHT22;37240;50.104;20.010;2022-08-04T14:39:43;32.80;39.60
51175;DHT22;37240;50.104;20.010;2022-08-04T14:44:52;32.20;39.50
51175;DHT22;37240;50.104;20.010;2022-08-04T14:49:56;31.70;41.50
51175;DHT22;37240;50.104;20.010;2022-08-04T14:54:56;31.20;43.30
51175;DHT22;37240;50.104;20.010;2022-08-04T14:59:57;30.70;43.50
51175;DHT22;37240;50.104;20.010;2022-08-04T15:04:58;30.30;43.90
51175;DHT22;37240;50.104;20.010;2022-08-04T15:09:59;30.10;44.10
51175;DHT22;37240;50.104;20.010;2022-08-04T15:15:00;30.10;44.90
51175;DHT22;37240;50.104;20.010;2022-08-04T15:20:01;30.10;44.00
51175;DHT22;37240;50.104;20.010;2022-08-04T15:25:02;30.00;44.40
51175;DHT22;37240;50.104;20.010;2022-08-04T15:30:05;29.80;45.00
51175;DHT22;37240;50.104;20.010;2022-08-04T15:35:11;29.80;44.20
51175;DHT22;37240;50.104;20.010;2022-08-04T15:40:13;29.80;44.50
51175;DHT22;37240;50.104;20.010;2022-08-04T15:50:18;29.70;44.30
51175;DHT22;37240;50.104;20.010;2022-08-04T15:55:36;29.60;45.20
51175;DHT22;37240;50.104;20.010;2022-08-04T16:05:47;29.40;46.50
51175;DHT22;37240;50.104;20.010;2022-08-04T16:10:49;29.40;46.60
51175;DHT22;37240;50.104;20.010;2022-08-04T16:15:50;29.20;46.30
51175;DHT22;37240;50.104;20.010;2022-08-04T16:20:54;29.20;46.30
51175;DHT22;37240;50.104;20.010;2022-08-04T16:25:54;29.20;46.00
51175;DHT22;37240;50.104;20.010;2022-08-04T16:31:00;29.40;46.00
51175;DHT22;37240;50.104;20.010;2022-08-04T16:36:01;29.30;45.10
51175;DHT22;37240;50.104;20.010;2022-08-04T16:41:01;29.20;45.50
51175;DHT22;37240;50.104;20.010;2022-08-04T16:46:03;29.20;46.10
51175;DHT22;37240;50.104;20.010;2022-08-04T16:51:09;29.20;46.20
51175;DHT22;37240;50.104;20.010;2022-08-04T16:56:11;29.10;46.80
51175;DHT22;37240;50.104;20.010;2022-08-04T17:01:14;29.10;47.60
51175;DHT22;37240;50.104;20.010;2022-08-04T17:06:15;29.10;48.00
51175;DHT22;37240;50.104;20.010;2022-08-04T17:11:16;29.00;47.90
51175;DHT22;37240;50.104;20.010;2022-08-04T17:16:17;28.80;48.10
51175;DHT22;37240;50.104;20.010;2022-08-04T17:21:23;28.70;48.60
51175;DHT22;37240;50.104;20.010;2022-08-04T17:26:29;28.70;49.20
51175;DHT22;37240;50.104;20.010;2022-08-04T17:31:32;28.60;49.60
51175;DHT22;37240;50.104;20.010;2022-08-04T17:36:33;28.60;50.20
51175;DHT22;37240;50.104;20.010;2022-08-04T17:41:34;28.40;51.00
51175;DHT22;37240;50.104;20.010;2022-08-04T17:46:41;28.40;51.20
51175;DHT22;37240;50.104;20.010;2022-08-04T17:51:57;28.30;51.50
51175;DHT22;37240;50.104;20.010;2022-08-04T17:57:12;28.20;52.00
51175;DHT22;37240;50.104;20.010;2022-08-04T18:02:27;28.20;52.20
51175;DHT22;37240;50.104;20.010;2022-08-04T18:07:36;28.20;52.90
51175;DHT22;37240;50.104;20.010;2022-08-04T18:12:37;28.10;52.60
51175;DHT22;37240;50.104;20.010;2022-08-04T18:17:41;28.00;53.00
51175;DHT22;37240;50.104;20.010;2022-08-04T18:22:42;27.90;53.10
51175;DHT22;37240;50.104;20.010;2022-08-04T18:27:54;27.70;53.30
51175;DHT22;37240;50.104;20.010;2022-08-04T18:32:54;27.70;53.50
51175;DHT22;37240;50.104;20.010;2022-08-04T18:37:55;29.00;51.40
51175;DHT22;37240;50.104;20.010;2022-08-04T18:42:55;29.90;50.00
51175;DHT22;37240;50.104;20.010;2022-08-04T18:47:56;30.30;48.40
51175;DHT22;37240;50.104;20.010;2022-08-04T18:52:56;30.50;48.00
51175;DHT22;37240;50.104;20.010;2022-08-04T18:57:57;30.80;47.50
51175;DHT22;37240;50.104;20.010;2022-08-04T19:02:57;30.90;47.10
51175;DHT22;37240;50.104;20.010;2022-08-04T19:07:58;30.20;48.20
51175;DHT22;37240;50.104;20.010;2022-08-04T19:12:58;29.40;49.40
51175;DHT22;37240;50.104;20.010;2022-08-04T19:17:59;29.20;49.70
51175;DHT22;37240;50.104;20.010;2022-08-04T19:22:59;29.10;50.10
51175;DHT22;37240;50.104;20.010;2022-08-04T19:28:00;28.80;50.70
51175;DHT22;37240;50.104;20.010;2022-08-04T19:33:00;28.70;50.80
51175;DHT22;37240;50.104;20.010;2022-08-04T19:38:01;28.70;51.10
51175;DHT22;37240;50.104;20.010;2022-08-04T19:43:02;28.70;50.90
51175;DHT22;37240;50.104;20.010;2022-08-04T19:48:03;28.40;51.70
51175;DHT22;37240;50.104;20.010;2022-08-04T19:53:04;27.90;52.50
51175;DHT22;37240;50.104;20.010;2022-08-04T19:58:06;27.50;53.10
51175;DHT22;37240;50.104;20.010;2022-08-04T20:03:08;27.20;53.40
51175;DHT22;37240;50.104;20.010;2022-08-04T20:08:09;27.00;54.00
51175;DHT22;37240;50.104;20.010;2022-08-04T20:13:09;26.90;54.40
51175;DHT22;37240;50.104;20.010;2022-08-04T20:18:10;26.70;54.90
51175;DHT22;37240;50.104;20.010;2022-08-04T20:23:10;26.50;55.30
51175;DHT22;37240;50.104;20.010;2022-08-04T20:28:11;26.40;55.10
51175;DHT22;37240;50.104;20.010;2022-08-04T20:33:11;26.30;55.30
51175;DHT22;37240;50.104;20.010;2022-08-04T20:38:12;26.20;55.50
51175;DHT22;37240;50.104;20.010;2022-08-04T20:43:12;26.10;55.60
51175;DHT22;37240;50.104;20.010;2022-08-04T20:48:13;26.00;55.60
51175;DHT22;37240;50.104;20.010;2022-08-04T20:53:14;25.90;55.80
51175;DHT22;37240;50.104;20.010;2022-08-04T20:58:14;25.80;56.20
51175;DHT22;37240;50.104;20.010;2022-08-04T21:03:15;25.70;55.70
51175;DHT22;37240;50.104;20.010;2022-08-04T21:08:15;25.60;56.00
51175;DHT22;37240;50.104;20.010;2022-08-04T21:13:16;25.60;56.10
51175;DHT22;37240;50.104;20.010;2022-08-04T21:18:16;25.50;55.90
51175;DHT22;37240;50.104;20.010;2022-08-04T21:23:17;25.40;56.20
51175;DHT22;37240;50.104;20.010;2022-08-04T21:28:17;25.30;56.50
51175;DHT22;37240;50.104;20.010;2022-08-04T21:33:18;25.20;56.40
51175;DHT22;37240;50.104;20.010;2022-08-04T21:38:20;25.10;56.40
51175;DHT22;37240;50.104;20.010;2022-08-04T21:43:24;25.10;56.60
51175;DHT22;37240;50.104;20.010;2022-08-04T21:48:26;25.00;56.70
51175;DHT22;37240;50.104;20.010;2022-08-04T21:53:26;25.00;57.00
51175;DHT22;37240;50.104;20.010;2022-08-04T21:58:27;24.90;57.00
51175;DHT22;37240;50.104;20.010;2022-08-04T22:03:27;24.80;57.30
51175;DHT22;37240;50.104;20.010;2022-08-04T22:08:28;24.70;57.50
51175;DHT22;37240;50.104;20.010;2022-08-04T22:13:28;24.60;57.80
51175;DHT22;37240;50.104;20.010;2022-08-04T22:18:29;24.50;58.10
51175;DHT22;37240;50.104;20.010;2022-08-04T22:23:29;24.30;58.60
51175;DHT22;37240;50.104;20.010;2022-08-04T22:28:30;24.20;58.90
51175;DHT22;37240;50.104;20.010;2022-08-04T22:33:30;24.20;59.40
51175;DHT22;37240;50.104;20.010;2022-08-04T22:38:31;24.00;60.00
51175;DHT22;37240;50.104;20.010;2022-08-04T22:43:32;23.90;60.50
51175;DHT22;37240;50.104;20.010;2022-08-04T22:48:35;23.80;61.10
51175;DHT22;37240;50.104;20.010;2022-08-04T22:53:36;23.70;61.80
51175;DHT22;37240;50.104;20.010;2022-08-04T22:58:42;23.60;62.00
51175;DHT22;37240;50.104;20.010;2022-08-04T23:03:43;23.50;62.60
51175;DHT22;37240;50.104;20.010;2022-08-04T23:08:43;23.40;63.00
51175;DHT22;37240;50.104;20.010;2022-08-04T23:13:44;23.40;63.30
51175;DHT22;37240;50.104;20.010;2022-08-04T23:18:45;23.30;63.50
51175;DHT22;37240;50.104;20.010;2022-08-04T23:23:45;23.30;64.10
51175;DHT22;37240;50.104;20.010;2022-08-04T23:28:46;23.20;64.40
51175;DHT22;37240;50.104;20.010;2022-08-04T23:33:46;23.10;64.90
51175;DHT22;37240;50.104;20.010;2022-08-04T23:38:46;23.10;65.20
51175;DHT22;37240;50.104;20.010;2022-08-04T23:43:47;23.10;65.40
51175;DHT22;37240;50.104;20.010;2022-08-04T23:48:47;23.00;66.00
51175;DHT22;37240;50.104;20.010;2022-08-04T23:53:48;22.90;66.50
51175;DHT22;37240;50.104;20.010;2022-08-04T23:58:48;22.90;66.70
